Time;durP1;ratioP1;P1;durP2;ratioP2;P2;SDS_P1;SDS_P2;PMS_P1;PMS_P2;Temp;Humidity;BMP_temperature;BMP_pressure;BME280_temperature;BME280_humidity;BME280_pressure;Samples;Min_cycle;Max_cycle;Signal;HPM_P1;HPM_P2
2024/01/15 00:03:31;;;;;;;54.17;18.13;;;-1.80;99.90;;;-3.90;100.00;98939.78;10232252;28;96482;-87
2024/01/15 00:08:35;;;;;;;36.23;13.07;;;-1.80;99.90;;;-3.88;100.00;98930.13;10197028;28;96509;-86
2024/01/15 00:13:38;;;;;;;32.13;12.17;;;-1.80;99.90;;;-3.90;100.00;98932.00;10224141;28;96726;-86
2024/01/15 00:18:41;;;;;;;32.27;13.33;;;-1.80;99.90;;;-3.91;100.00;98917.34;10208649;28;97523;-86
2024/01/15 00:23:45;;;;;;;29.00;12.17;;;-1.80;99.90;;;-3.92;100.00;98894.09;10207206;28;96816;-86
2024/01/15 00:28:49;;;;;;;30.97;12.90;;;-1.80;99.90;;;-3.91;100.00;98891.41;10244257;28;96808;-86
2024/01/15 00:33:53;;;;;;;38.50;13.33;;;-1.70;99.90;;;-3.85;100.00;98890.13;10214518;28;96532;-86
2024/01/15 00:38:56;;;;;;;34.13;13.23;;;-1.70;99.90;;;-3.80;100.00;98882.84;10197175;28;96883;-86
2024/01/15 00:44:00;;;;;;;31.77;14.37;;;-1.70;99.90;;;-3.71;100.00;98886.56;10215367;28;96594;-86
2024/01/15 00:49:03;;;;;;;39.53;15.73;;;-1.60;99.90;;;-3.60;100.00;98878.81;10216342;28;96428;-86
2024/01/15 00:54:08;;;;;;;36.37;13.53;;;-1.50;99.90;;;-3.49;100.00;98852.91;10244598;28;97045;-86
2024/01/15 00:59:24;;;;;;;42.07;13.53;;;-1.40;99.90;;;-3.33;100.00;98856.03;10203279;28;96529;-86
2024/01/15 01:04:27;;;;;;;47.07;17.80;;;-1.30;99.90;;;-3.22;100.00;98850.06;10221640;28;96630;-86
2024/01/15 01:09:31;;;;;;;36.27;14.37;;;-1.20;99.90;;;-3.17;100.00;98850.56;10222410;28;96449;-86
2024/01/15 01:14:34;;;;;;;37.80;14.20;;;-1.10;99.90;;;-3.11;100.00;98844.91;10213363;28;96501;-86
2024/01/15 01:19:38;;;;;;;39.17;14.13;;;-1.00;99.90;;;-3.07;100.00;98841.09;10228266;28;96658;-86
2024/01/15 01:24:42;;;;;;;37.63;15.40;;;-1.00;99.90;;;-3.07;100.00;98822.91;10190708;28;96548;-86
2024/01/15 01:29:46;;;;;;;39.30;15.37;;;-0.90;99.90;;;-3.03;100.00;98813.13;10233252;28;96958;-85
2024/01/15 01:34:52;;;;;;;32.10;14.37;;;-0.90;99.90;;;-2.98;100.00;98806.63;10211942;28;96582;-86
2024/01/15 01:39:59;;;;;;;32.00;12.83;;;-0.90;99.90;;;-2.97;100.00;98803.09;10214689;28;96486;-86
2024/01/15 01:45:04;;;;;;;40.10;14.10;;;-0.90;99.90;;;-2.94;100.00;98793.41;10228126;28;97191;-86
2024/01/15 01:50:08;;;;;;;38.87;14.03;;;-0.80;99.90;;;-3.07;100.00;98783.94;10219807;28;98087;-86
2024/01/15 01:55:13;;;;;;;28.27;13.40;;;-0.90;99.90;;;-3.11;100.00;98781.72;10201464;28;96696;-87
2024/01/15 02:00:17;;;;;;;31.67;13.53;;;-1.00;99.90;;;-3.18;100.00;98768.31;10199082;28;97522;-86
2024/01/15 02:05:32;;;;;;;40.87;15.50;;;-1.00;99.90;;;-3.20;100.00;98780.59;10189762;28;97027;-87
2024/01/15 02:10:45;;;;;;;32.17;11.30;;;-1.10;99.90;;;-3.26;100.00;98762.88;10227647;28;96619;-86
2024/01/15 02:15:52;;;;;;;27.17;10.90;;;-1.20;99.90;;;-3.31;100.00;98754.59;10181497;28;96504;-86
2024/01/15 02:20:59;;;;;;;32.60;10.90;;;-1.20;99.90;;;-3.37;100.00;98748.09;10212191;28;96704;-86
2024/01/15 02:26:04;;;;;;;34.97;11.97;;;-1.20;99.90;;;-3.39;100.00;98767.34;10213917;28;96419;-86
2024/01/15 02:31:09;;;;;;;34.83;13.43;;;-1.30;99.90;;;-3.45;100.00;98765.22;10212568;28;96614;-86
2024/01/15 02:36:16;;;;;;;34.87;14.23;;;-1.30;99.90;;;-3.60;100.00;98756.78;10213129;28;96507;-86
2024/01/15 02:41:20;;;;;;;32.13;12.57;;;-1.40;99.90;;;-3.74;100.00;98757.81;10208312;28;96690;-86
2024/01/15 02:46:24;;;;;;;34.30;12.00;;;-1.50;99.90;;;-3.79;100.00;98752.13;10199990;28;96956;-86
2024/01/15 02:51:29;;;;;;;32.80;13.10;;;-1.60;99.90;;;-3.84;100.00;98746.44;10225580;28;96544;-86
2024/01/15 02:56:34;;;;;;;31.03;12.30;;;-1.60;99.90;;;-3.86;100.00;98732.75;10209116;28;96965;-87
2024/01/15 03:01:39;;;;;;;35.93;13.60;;;-1.70;99.90;;;-3.96;100.00;98731.75;10234230;28;96565;-87
2024/01/15 03:06:51;;;;;;;40.80;13.97;;;-1.80;99.90;;;-4.12;100.00;98717.34;10250697;28;96439;-86
2024/01/15 03:11:55;;;;;;;44.10;16.73;;;-1.90;99.90;;;-4.21;100.00;98711.97;10209804;28;96578;-86
2024/01/15 03:17:02;;;;;;;42.40;17.47;;;-2.00;99.90;;;-4.26;100.00;98709.69;10207807;28;96480;-86
2024/01/15 03:22:08;;;;;;;47.17;17.43;;;-2.10;99.90;;;-4.32;100.00;98702.38;10201413;28;96926;-86
2024/01/15 03:27:15;;;;;;;41.13;15.40;;;-2.10;99.90;;;-4.30;100.00;98708.28;10210004;28;96481;-86
2024/01/15 03:32:22;;;;;;;37.30;16.27;;;-2.10;99.90;;;-4.21;100.00;98697.22;10224945;28;96576;-86
2024/01/15 03:37:26;;;;;;;36.70;15.40;;;-2.10;99.90;;;-4.14;100.00;98698.47;10211449;28;96788;-87
2024/01/15 03:42:30;;;;;;;35.83;13.30;;;-2.00;99.90;;;-4.07;100.00;98694.47;10225582;28;96657;-87
2024/01/15 03:47:34;;;;;;;33.67;14.00;;;-1.90;99.90;;;-3.99;100.00;98701.69;10212863;28;96486;-86
2024/01/15 03:52:38;;;;;;;34.00;13.17;;;-1.90;99.90;;;-3.97;100.00;98698.97;10225667;28;96470;-86
2024/01/15 03:57:41;;;;;;;32.40;13.67;;;-1.90;99.90;;;-3.97;100.00;98701.56;10210828;28;97447;-87
2024/01/15 04:02:48;;;;;;;38.10;14.37;;;-1.80;99.90;;;-3.98;100.00;98707.72;10215940;28;96608;-86
2024/01/15 04:07:52;;;;;;;35.90;16.63;;;-1.90;99.90;;;-4.04;100.00;98685.63;10217551;28;96568;-86
2024/01/15 04:12:56;;;;;;;45.47;15.77;;;-1.90;99.90;;;-4.15;100.00;98663.06;10238448;28;96665;-86
2024/01/15 04:18:02;;;;;;;37.30;15.10;;;-2.00;99.90;;;-4.29;100.00;98672.81;10200999;28;96747;-86
2024/01/15 04:23:06;;;;;;;32.00;13.83;;;-2.20;99.90;;;-4.42;100.00;98672.88;10248930;28;96464;-86
2024/01/15 04:28:10;;;;;;;37.57;14.70;;;-2.20;99.90;;;-4.56;100.00;98668.66;10200263;28;96506;-86
2024/01/15 04:33:14;;;;;;;42.23;15.07;;;-2.40;99.90;;;-4.65;100.00;98670.16;10205696;28;96567;-86
2024/01/15 04:38:20;;;;;;;35.80;14.30;;;-2.50;99.90;;;-4.74;100.00;98675.16;10229588;28;96683;-86
2024/01/15 04:43:25;;;;;;;40.80;15.17;;;-2.60;99.90;;;-4.92;100.00;98653.97;10199653;28;96497;-86
2024/01/15 04:48:30;;;;;;;37.27;13.73;;;-2.70;99.90;;;-5.00;100.00;98677.81;10223881;28;96691;-87
2024/01/15 04:53:35;;;;;;;36.17;15.53;;;-2.80;99.90;;;-5.09;100.00;98668.13;10185085;28;96663;-86
2024/01/15 04:58:39;;;;;;;41.77;15.60;;;-2.90;99.90;;;-5.14;100.00;98659.84;10213079;28;96458;-85
2024/01/15 05:03:43;;;;;;;30.03;12.47;;;-2.90;99.90;;;-5.25;100.00;98662.34;10214465;28;96786;-85
2024/01/15 05:08:46;;;;;;;40.67;14.07;;;-3.00;99.90;;;-5.31;100.00;98673.94;10205277;28;96458;-85
2024/01/15 05:13:50;;;;;;;36.83;13.53;;;-3.00;99.90;;;-5.34;100.00;98684.50;10219837;28;97958;-86
2024/01/15 05:18:53;;;;;;;42.07;16.60;;;-3.10;99.90;;;-5.33;100.00;98672.41;10213580;28;96483;-86
2024/01/15 05:23:57;;;;;;;39.07;14.87;;;-3.10;99.90;;;-5.31;100.00;98671.34;10213355;28;96668;-86
2024/01/15 05:29:01;;;;;;;36.03;14.63;;;-3.10;99.90;;;-5.32;100.00;98682.66;10206592;28;96703;-87
2024/01/15 05:34:04;;;;;;;59.17;21.83;;;-3.10;99.90;;;-5.33;100.00;98675.00;10226671;28;96625;-86
2024/01/15 05:39:08;;;;;;;42.70;15.97;;;-3.10;99.90;;;-5.40;100.00;98671.97;10214090;28;96443;-87
2024/01/15 05:44:12;;;;;;;41.70;17.60;;;-3.20;99.90;;;-5.48;100.00;98684.63;10215588;28;96605;-87
2024/01/15 05:49:15;;;;;;;41.37;16.33;;;-3.20;99.90;;;-5.48;100.00;98676.84;10208801;28;96775;-87
2024/01/15 05:54:19;;;;;;;45.17;20.60;;;-3.30;99.90;;;-5.49;100.00;98654.50;10222499;28;96904;-89
2024/01/15 05:59:25;;;;;;;56.80;20.43;;;-3.30;99.90;;;-5.40;100.00;98665.06;10236753;28;96544;-89
2024/01/15 06:04:28;;;;;;;51.27;21.33;;;-3.20;99.90;;;-5.38;100.00;98641.66;10244546;28;96665;-89
2024/01/15 06:09:32;;;;;;;58.33;18.37;;;-3.20;99.90;;;-5.36;100.00;98646.72;10243209;28;98542;-86
2024/01/15 06:14:37;;;;;;;45.10;17.23;;;-3.20;99.90;;;-5.42;100.00;98641.00;10244477;28;98585;-88
2024/01/15 06:19:40;;;;;;;38.50;16.93;;;-3.20;99.90;;;-5.40;100.00;98634.00;10222460;28;96735;-87
2024/01/15 06:24:44;;;;;;;53.07;19.57;;;-3.20;99.90;;;-5.36;100.00;98629.41;10212302;28;96954;-87
2024/01/15 06:29:47;;;;;;;51.27;20.37;;;-3.20;99.90;;;-5.33;100.00;98626.63;10230888;28;96838;-87
2024/01/15 06:34:53;;;;;;;50.77;19.47;;;-3.10;99.90;;;-5.28;100.00;98637.47;10262982;28;96642;-87
2024/01/15 06:39:57;;;;;;;52.27;21.00;;;-3.10;99.90;;;-5.26;100.00;98658.09;10226147;28;97570;-87
2024/01/15 06:45:01;;;;;;;62.70;24.87;;;-3.10;99.90;;;-5.26;100.00;98655.50;10214044;28;96641;-87
2024/01/15 06:50:06;;;;;;;49.53;18.83;;;-3.10;99.90;;;-5.30;100.00;98647.13;10224629;28;96607;-87
2024/01/15 06:55:10;;;;;;;55.33;21.10;;;-3.10;99.90;;;-5.38;100.00;98647.66;10208327;28;96734;-87
2024/01/15 07:00:16;;;;;;;49.63;21.00;;;-3.10;99.90;;;-5.31;100.00;98678.28;10226152;28;96541;-87
2024/01/15 07:05:21;;;;;;;47.20;19.90;;;-3.20;99.90;;;-5.28;100.00;98668.53;10203138;28;96656;-87
2024/01/15 07:10:24;;;;;;;66.10;24.27;;;-3.20;99.90;;;-5.14;100.00;98667.59;10182240;28;96564;-87
2024/01/15 07:15:28;;;;;;;71.33;27.87;;;-3.10;99.90;;;-5.03;100.00;98677.22;10201980;28;98149;-87
2024/01/15 07:20:32;;;;;;;74.90;28.20;;;-3.10;99.90;;;-5.02;100.00;98668.50;10245726;28;97997;-87
2024/01/15 07:25:36;;;;;;;57.33;23.93;;;-3.00;99.90;;;-5.02;100.00;98665.94;10254022;28;96779;-87
2024/01/15 07:30:40;;;;;;;44.57;17.50;;;-2.90;99.90;;;-4.89;100.00;98690.84;10210914;28;96647;-87
2024/01/15 07:35:43;;;;;;;33.77;14.53;;;-2.90;99.90;;;-4.77;100.00;98698.72;10207632;28;96688;-86
2024/01/15 07:40:49;;;;;;;47.20;20.40;;;-2.70;99.90;;;-4.55;100.00;98713.59;10209400;28;97050;-86
2024/01/15 07:45:52;;;;;;;39.57;16.50;;;-2.50;99.90;;;-4.27;100.00;98710.66;10198089;28;96627;-87
2024/01/15 07:50:56;;;;;;;33.73;13.60;;;-2.30;99.90;;;-3.82;100.00;98710.84;10203505;28;96721;-87
2024/01/15 07:55:59;;;;;;;35.30;13.97;;;-2.00;99.90;;;-3.04;100.00;98694.53;10178175;28;96959;-86
2024/01/15 08:01:03;;;;;;;39.17;17.17;;;-1.40;99.90;;;-2.10;100.00;98701.75;10223896;28;96697;-86
2024/01/15 08:06:09;;;;;;;26.63;11.67;;;-0.70;99.90;;;-1.23;100.00;98712.78;10209701;28;97036;-86
2024/01/15 08:11:13;;;;;;;25.47;9.90;;;0.10;99.90;;;-0.48;100.00;98698.50;10211839;28;96753;-86
2024/01/15 08:16:16;;;;;;;19.77;8.40;;;0.60;99.90;;;0.18;100.00;98697.81;10210177;28;96548;-86
2024/01/15 08:21:20;;;;;;;19.37;7.73;;;1.20;99.90;;;0.66;100.00;98703.00;10179115;28;96516;-85
2024/01/15 08:26:25;;;;;;;19.23;7.83;;;1.80;99.90;;;1.14;90.62;98690.72;10170064;28;96899;-86
2024/01/15 08:31:29;;;;;;;16.33;7.23;;;2.30;99.90;;;1.49;80.17;98682.13;10177196;28;96408;-86
2024/01/15 08:36:35;;;;;;;13.90;6.93;;;2.70;99.90;;;1.68;75.32;98687.25;10209342;28;96837;-85
2024/01/15 08:41:39;;;;;;;14.93;5.73;;;3.10;99.90;;;1.90;72.51;98695.63;10223082;28;96487;-85
2024/01/15 08:46:43;;;;;;;11.67;5.07;;;3.30;99.90;;;2.11;67.96;98688.31;10223268;28;96558;-86
2024/01/15 08:51:47;;;;;;;12.50;5.73;;;3.60;98.80;;;2.24;65.07;98683.50;10228843;28;97822;-85
2024/01/15 08:56:51;;;;;;;11.07;4.93;;;3.80;97.10;;;2.26;63.64;98689.41;10250897;28;96605;-86
2024/01/15 09:01:57;;;;;;;11.03;4.90;;;3.90;94.90;;;2.41;62.64;98687.91;10241012;28;96847;-85
2024/01/15 09:07:00;;;;;;;15.37;5.77;;;4.10;95.10;;;2.44;62.79;98686.75;10231553;28;96741;-83
2024/01/15 09:12:04;;;;;;;13.43;5.73;;;4.20;95.10;;;2.23;62.27;98702.00;10208876;28;97003;-86
2024/01/15 09:17:08;;;;;;;11.70;5.07;;;3.90;93.70;;;1.95;62.40;98693.41;10212733;28;96579;-84
2024/01/15 09:22:14;;;;;;;11.73;5.00;;;3.70;93.40;;;1.96;63.28;98658.34;10214992;28;96320;-85
2024/01/15 09:27:17;;;;;;;9.83;4.70;;;3.80;93.60;;;2.38;62.35;98654.09;10247296;28;96652;-84
2024/01/15 09:32:21;;;;;;;17.10;5.60;;;4.20;93.40;;;2.76;61.08;98649.44;10254337;28;96720;-84
2024/01/15 09:37:25;;;;;;;8.53;4.10;;;4.60;92.90;;;3.26;59.02;98653.09;10240452;28;96873;-84
2024/01/15 09:42:47;;;;;;;8.63;3.90;;;5.10;92.20;;;3.76;57.27;98626.78;10225265;28;98466;-84
2024/01/15 09:47:51;;;;;;;8.60;4.30;;;5.60;91.40;;;4.07;56.81;98636.63;10209963;28;96583;-84
2024/01/15 09:52:57;;;;;;;10.70;4.60;;;5.90;91.30;;;4.38;55.17;98645.50;10213135;28;96471;-84
2024/01/15 09:58:02;;;;;;;11.20;4.93;;;6.20;90.10;;;4.50;54.02;98644.19;10235633;28;97005;-84
2024/01/15 10:03:07;;;;;;;9.43;4.77;;;6.30;87.80;;;4.30;54.38;98632.34;10229190;28;96513;-84
2024/01/15 10:08:11;;;;;;;9.57;4.20;;;5.90;87.80;;;3.93;54.72;98599.50;10214705;28;96636;-84
2024/01/15 10:13:15;;;;;;;9.07;4.43;;;5.70;86.80;;;3.79;55.38;98587.03;10234097;28;97139;-84
2024/01/15 10:18:19;;;;;;;10.30;4.97;;;5.50;87.50;;;3.55;55.11;98606.22;10209459;28;96571;-84
2024/01/15 10:23:24;;;;;;;9.87;4.27;;;5.20;87.00;;;3.33;55.84;98599.78;10211386;28;96503;-84
2024/01/15 10:28:30;;;;;;;8.57;3.73;;;5.10;87.50;;;3.08;56.25;98591.03;10209716;28;96631;-84
2024/01/15 10:33:33;;;;;;;7.67;3.80;;;4.90;87.10;;;3.00;57.86;98580.50;10227474;28;96763;-84
2024/01/15 10:38:37;;;;;;;8.37;3.53;;;4.70;88.60;;;3.00;58.63;98579.66;10226024;28;97757;-84
2024/01/15 10:43:41;;;;;;;7.93;3.83;;;4.70;89.60;;;3.06;59.29;98579.03;10211339;28;96538;-84
2024/01/15 10:48:45;;;;;;;6.77;3.30;;;4.70;90.40;;;3.13;59.25;98578.25;10207702;28;96671;-85
2024/01/15 10:53:49;;;;;;;10.07;4.13;;;4.80;90.20;;;3.29;60.04;98581.88;10206998;28;96535;-85
2024/01/15 10:58:54;;;;;;;6.97;3.33;;;5.00;90.70;;;4.16;59.49;98577.81;10207875;28;98459;-86
2024/01/15 11:04:03;;;;;;;7.47;3.47;;;5.90;91.30;;;5.06;55.44;98565.22;10239869;28;97113;-85
2024/01/15 11:09:08;;;;;;;7.07;3.07;;;6.80;90.30;;;5.40;54.41;98572.75;10209810;28;97272;-85
2024/01/15 11:14:35;;;;;;;6.37;2.90;;;7.10;89.90;;;5.45;52.20;98574.84;10206726;28;98136;-85
2024/01/15 11:19:43;;;;;;;8.73;3.10;;;7.30;84.40;;;5.38;52.31;98548.38;10207582;28;96525;-86
2024/01/15 11:24:47;;;;;;;7.63;2.70;;;7.20;83.90;;;5.26;52.72;98562.94;10213759;28;96606;-85
2024/01/15 11:30:07;;;;;;;7.07;3.23;;;6.90;83.90;;;5.07;52.77;98572.09;10226022;28;96530;-85
2024/01/15 11:35:13;;;;;;;4.90;2.50;;;6.70;83.80;;;4.76;52.28;98559.75;10201050;28;96843;-84
2024/01/15 11:40:23;;;;;;;7.00;2.60;;;6.50;81.70;;;4.42;53.40;98593.38;10209603;28;97159;-85
2024/01/15 11:45:27;;;;;;;5.23;2.90;;;6.10;82.80;;;4.10;54.11;98599.53;10174385;28;96652;-85
2024/01/15 11:50:31;;;;;;;7.83;3.63;;;5.90;83.60;;;3.82;55.52;98568.31;10221472;28;98295;-89
2024/01/15 11:55:44;;;;;;;6.90;3.27;;;5.60;84.80;;;3.68;56.55;98558.47;10207765;28;97071;-88
2024/01/15 12:00:51;;;;;;;7.90;2.80;;;5.40;85.70;;;3.59;56.91;98565.50;10225244;28;96982;-87
2024/01/15 12:05:55;;;;;;;6.40;2.77;;;5.30;86.30;;;3.52;57.20;98553.19;10207305;28;97931;-87
2024/01/15 12:10:58;;;;;;;4.93;2.60;;;5.30;87.10;;;3.47;57.17;98536.09;10219066;28;96466;-87
2024/01/15 12:16:04;;;;;;;5.07;2.30;;;5.20;86.60;;;3.37;57.14;98530.22;10229031;28;96526;-86
2024/01/15 12:21:09;;;;;;;6.57;2.67;;;5.20;86.50;;;3.27;57.07;98523.47;10230516;28;97689;-86
2024/01/15 12:26:12;;;;;;;5.13;2.20;;;5.10;86.30;;;3.24;57.52;98529.88;10216977;28;96470;-87
2024/01/15 12:31:19;;;;;;;5.63;2.80;;;5.00;86.70;;;3.29;57.98;98524.94;10228928;28;96635;-86
2024/01/15 12:36:23;;;;;;;6.10;3.03;;;5.00;87.10;;;3.18;58.32;98510.34;10227582;28;96568;-84
2024/01/15 12:41:26;;;;;;;5.27;2.53;;;4.90;87.20;;;3.20;59.00;98492.63;10230058;28;96522;-86
2024/01/15 12:46:30;;;;;;;10.10;3.50;;;4.90;87.60;;;3.15;59.24;98475.72;10214069;28;96541;-84
2024/01/15 12:51:39;;;;;;;7.17;2.97;;;4.90;87.90;;;3.23;59.46;98483.59;10229686;28;96561;-86
2024/01/15 12:56:44;;;;;;;8.00;3.13;;;4.90;88.30;;;3.28;59.23;98483.09;10246226;28;96555;-86
2024/01/15 13:01:48;;;;;;;4.63;2.57;;;5.00;88.10;;;3.22;58.76;98456.50;10214871;28;96656;-86
2024/01/15 13:06:53;;;;;;;4.90;2.50;;;5.00;88.00;;;3.28;59.15;98467.34;10219254;28;97059;-86
2024/01/15 13:11:57;;;;;;;4.93;2.60;;;5.00;88.70;;;3.27;59.08;98470.97;10201637;28;98145;-85
2024/01/15 13:17:00;;;;;;;7.97;2.70;;;5.00;87.90;;;3.27;59.17;98482.28;10229640;28;96924;-84
2024/01/15 13:22:06;;;;;;;5.97;2.73;;;5.00;88.00;;;3.18;58.77;98491.97;10221521;28;98033;-85
2024/01/15 13:27:11;;;;;;;6.33;3.13;;;5.00;87.30;;;3.10;59.27;98484.06;10243346;28;96573;-86
2024/01/15 13:32:26;;;;;;;7.60;3.30;;;4.90;87.80;;;3.14;59.59;98492.44;10228025;28;96523;-85
2024/01/15 13:37:30;;;;;;;10.93;3.20;;;4.90;88.10;;;3.11;59.95;98503.25;10193602;28;97650;-85
2024/01/15 13:42:34;;;;;;;6.87;3.03;;;4.90;88.60;;;3.14;60.46;98500.31;10212883;28;97768;-84
2024/01/15 13:47:37;;;;;;;6.23;2.87;;;4.90;89.30;;;3.17;60.80;98494.72;10214004;28;96563;-84
2024/01/15 13:52:41;;;;;;;8.03;3.23;;;4.90;89.80;;;3.10;61.09;98491.13;10212815;28;96666;-84
2024/01/15 13:57:45;;;;;;;6.93;3.10;;;4.90;90.40;;;3.09;60.79;98494.72;10225708;28;96526;-84
2024/01/15 14:02:49;;;;;;;7.83;3.07;;;4.90;89.40;;;3.02;61.11;98506.88;10213359;28;96425;-85
2024/01/15 14:07:52;;;;;;;6.70;2.77;;;4.90;89.50;;;2.97;61.18;98517.84;10215113;28;96966;-85
2024/01/15 14:12:56;;;;;;;6.13;2.73;;;4.80;89.60;;;2.87;61.41;98522.38;10220372;28;96630;-85
2024/01/15 14:18:01;;;;;;;7.37;2.60;;;4.70;89.60;;;2.79;62.23;98515.31;10223450;28;96443;-85
2024/01/15 14:23:05;;;;;;;6.93;2.80;;;4.60;90.40;;;2.65;62.80;98503.66;10211606;28;96730;-85
2024/01/15 14:28:08;;;;;;;6.73;3.13;;;4.50;90.30;;;2.53;63.54;98498.84;10226949;28;96663;-85
2024/01/15 14:33:13;;;;;;;6.37;3.07;;;4.40;90.50;;;2.31;64.27;98490.56;10220904;28;96961;-85
2024/01/15 14:38:17;;;;;;;12.07;4.47;;;4.30;91.00;;;2.16;65.24;98507.88;10197244;28;97502;-85
2024/01/15 14:43:26;;;;;;;9.60;3.93;;;4.10;90.80;;;1.99;66.17;98511.38;10229284;28;98026;-85
2024/01/15 14:48:30;;;;;;;8.47;3.97;;;3.90;91.50;;;1.92;66.53;98518.16;10209784;28;96457;-84
2024/01/15 14:53:35;;;;;;;15.13;7.47;;;3.80;91.60;;;1.79;67.13;98516.78;10205339;28;96660;-84
2024/01/15 14:58:39;;;;;;;8.77;4.40;;;3.70;91.70;;;1.72;68.53;98521.00;10234597;28;97783;-85
2024/01/15 15:03:44;;;;;;;6.23;2.73;;;3.60;91.70;;;1.64;68.58;98523.56;10209469;28;98203;-86
2024/01/15 15:08:48;;;;;;;9.07;3.83;;;3.60;91.60;;;1.67;69.12;98527.66;10211171;28;96542;-86
2024/01/15 15:13:52;;;;;;;8.17;3.40;;;3.50;91.70;;;1.55;69.28;98529.69;10211137;28;96455;-85
2024/01/15 15:18:59;;;;;;;8.17;3.27;;;3.50;91.80;;;1.51;69.75;98538.84;10236714;28;96586;-85
2024/01/15 15:24:03;;;;;;;11.03;4.17;;;3.40;91.90;;;1.39;69.97;98524.34;10211326;28;96565;-83
2024/01/15 15:29:07;;;;;;;7.73;3.33;;;3.30;92.20;;;1.38;70.32;98533.97;10210740;28;98302;-86
2024/01/15 15:34:13;;;;;;;6.83;3.67;;;3.30;92.50;;;1.32;70.70;98530.16;10232930;28;96513;-84
2024/01/15 15:39:20;;;;;;;16.83;6.03;;;3.20;92.30;;;1.23;70.91;98520.59;10209553;28;96550;-84
2024/01/15 15:44:24;;;;;;;15.23;5.83;;;3.20;92.90;;;1.19;71.57;98518.41;10224907;28;96662;-84
2024/01/15 15:49:28;;;;;;;9.77;4.77;;;3.10;92.70;;;1.16;71.76;98518.72;10225419;28;96509;-86
2024/01/15 15:54:32;;;;;;;12.70;5.50;;;3.00;92.80;;;1.06;72.08;98524.00;10204385;28;96396;-85
2024/01/15 15:59:36;;;;;;;13.53;4.47;;;3.00;93.20;;;1.02;72.56;98538.34;10251968;28;97875;-84
2024/01/15 16:04:40;;;;;;;6.90;3.77;;;3.00;93.40;;;0.95;73.12;98526.84;10241033;28;96526;-84
2024/01/15 16:09:44;;;;;;;8.97;4.17;;;2.90;93.80;;;0.97;72.52;98532.75;10225160;28;97065;-86
2024/01/15 16:14:48;;;;;;;8.90;3.50;;;2.90;93.50;;;1.03;72.07;98534.78;10225947;28;96405;-86
2024/01/15 16:19:51;;;;;;;8.07;3.00;;;3.00;93.40;;;1.07;71.79;98542.16;10208177;28;96461;-84
2024/01/15 16:25:15;;;;;;;4.00;2.23;;;3.00;93.50;;;1.11;70.31;98547.94;10221738;28;96825;-84
2024/01/15 16:30:21;;;;;;;6.00;2.83;;;3.00;93.10;;;1.21;69.01;98553.13;10244036;28;96970;-84
2024/01/15 16:35:36;;;;;;;5.60;2.50;;;3.10;92.60;;;1.23;68.64;98551.16;10207232;28;96575;-84
2024/01/15 16:40:40;;;;;;;5.53;2.27;;;3.20;92.80;;;1.32;65.97;98553.72;10221636;28;96508;-84
2024/01/15 16:45:43;;;;;;;4.63;2.17;;;3.20;91.60;;;1.43;65.29;98547.41;10205938;28;98323;-84
2024/01/15 16:50:47;;;;;;;8.03;2.87;;;3.30;91.30;;;1.51;64.95;98565.00;10212887;28;99237;-85
2024/01/15 16:55:51;;;;;;;6.13;2.60;;;3.30;91.30;;;1.51;65.17;98562.41;10215592;28;96545;-84
2024/01/15 17:00:55;;;;;;;8.23;3.40;;;3.30;91.00;;;1.53;65.18;98584.00;10223671;28;96585;-84
2024/01/15 17:05:59;;;;;;;15.27;4.80;;;3.40;91.40;;;1.47;65.79;98577.56;10209962;28;97046;-84
2024/01/15 17:11:02;;;;;;;8.83;2.47;;;3.30;91.40;;;1.46;66.28;98588.19;10213196;28;96673;-84
2024/01/15 17:16:07;;;;;;;5.33;2.37;;;3.30;91.40;;;1.45;66.39;98590.00;10215666;28;97297;-84
2024/01/15 17:21:10;;;;;;;5.73;2.63;;;3.30;91.60;;;1.43;66.65;98606.81;10214727;28;96421;-86
2024/01/15 17:26:14;;;;;;;5.37;2.50;;;3.30;91.70;;;1.39;67.00;98595.00;10230253;28;96546;-85
2024/01/15 17:31:18;;;;;;;5.67;2.50;;;3.20;91.80;;;1.37;67.53;98584.66;10208516;28;96447;-84
2024/01/15 17:36:22;;;;;;;7.63;3.07;;;3.20;92.00;;;1.32;68.06;98589.53;10207104;28;96571;-84
2024/01/15 17:41:25;;;;;;;14.83;5.57;;;3.20;92.20;;;1.27;68.89;98589.16;10229002;28;96550;-84
2024/01/15 17:46:29;;;;;;;11.90;4.93;;;3.10;92.40;;;1.22;69.20;98573.06;10233359;28;96578;-85
2024/01/15 17:51:34;;;;;;;7.93;3.63;;;3.10;92.50;;;1.17;69.19;98583.16;10212775;28;96666;-86
2024/01/15 17:56:38;;;;;;;8.97;4.07;;;3.00;92.50;;;1.15;69.89;98603.41;10213646;28;97317;-86
2024/01/15 18:01:43;;;;;;;7.07;3.33;;;3.00;92.90;;;1.12;70.10;98601.91;10229395;28;97787;-85
2024/01/15 18:06:51;;;;;;;5.83;2.80;;;3.00;93.00;;;1.05;70.17;98570.28;10214168;28;96500;-86
2024/01/15 18:11:58;;;;;;;7.30;2.97;;;3.00;92.90;;;1.04;70.58;98566.03;10212322;28;96983;-86
2024/01/15 18:17:04;;;;;;;6.60;3.00;;;2.90;93.00;;;1.02;70.93;98582.81;10230319;28;97161;-86
2024/01/15 18:22:07;;;;;;;5.63;2.60;;;2.90;93.10;;;0.95;71.40;98579.16;10172636;28;96514;-86
2024/01/15 18:27:12;;;;;;;6.60;2.57;;;2.80;93.40;;;0.91;71.64;98589.09;10182798;28;96467;-85
2024/01/15 18:32:17;;;;;;;6.23;2.60;;;2.80;93.30;;;0.85;71.65;98573.16;10243925;28;96606;-85
2024/01/15 18:37:21;;;;;;;4.37;2.43;;;2.80;93.50;;;0.76;72.28;98580.91;10187998;28;96494;-85
2024/01/15 18:42:25;;;;;;;5.57;2.33;;;2.70;93.10;;;0.83;72.67;98617.75;10173078;28;96779;-85
2024/01/15 18:47:28;;;;;;;5.57;2.47;;;2.70;93.20;;;0.86;72.57;98633.16;10212715;28;96470;-85
2024/01/15 18:52:32;;;;;;;5.70;2.83;;;2.70;93.30;;;0.88;72.55;98631.22;10211962;28;97293;-85
2024/01/15 18:57:36;;;;;;;11.77;3.37;;;2.80;93.60;;;0.94;72.39;98632.44;10227014;28;96466;-85
2024/01/15 19:02:40;;;;;;;4.80;2.50;;;2.80;93.50;;;0.93;72.79;98646.47;10213648;28;96466;-85
2024/01/15 19:07:46;;;;;;;6.83;3.40;;;2.80;93.70;;;0.87;72.88;98647.88;10241812;28;96614;-85
2024/01/15 19:12:54;;;;;;;6.17;2.87;;;2.80;93.80;;;0.72;72.83;98658.00;10266959;28;96548;-85
2024/01/15 19:17:59;;;;;;;6.90;3.17;;;2.70;93.80;;;0.68;73.43;98666.25;10241460;28;96480;-85
2024/01/15 19:23:04;;;;;;;12.97;5.07;;;2.70;94.10;;;0.65;73.77;98653.47;10231498;28;96470;-85
2024/01/15 19:28:08;;;;;;;17.13;5.30;;;2.60;94.30;;;0.51;74.62;98633.84;10212142;28;96778;-85
2024/01/15 19:33:11;;;;;;;14.43;4.40;;;2.50;94.50;;;0.36;74.86;98654.38;10210500;28;96482;-85
2024/01/15 19:38:15;;;;;;;10.43;4.03;;;2.40;94.30;;;0.15;76.30;98662.38;10206874;28;96639;-85
2024/01/15 19:43:18;;;;;;;6.07;3.03;;;2.20;94.00;;;0.05;77.84;98671.16;10225295;28;96700;-85
2024/01/15 19:48:22;;;;;;;7.63;3.03;;;2.00;94.10;;;-0.01;78.93;98665.53;10211258;28;96376;-85
2024/01/15 19:53:26;;;;;;;4.57;2.27;;;2.00;94.70;;;0.00;79.79;98645.50;10209411;28;96497;-85
2024/01/15 19:58:35;;;;;;;7.23;2.70;;;1.90;94.60;;;-0.05;80.07;98640.69;10225656;28;96515;-85
2024/01/15 20:03:40;;;;;;;5.17;2.30;;;1.90;94.80;;;-0.07;80.12;98660.03;10225128;28;96489;-85
2024/01/15 20:08:46;;;;;;;7.57;2.87;;;1.90;94.90;;;-0.19;80.30;98684.63;10239666;28;96572;-84
2024/01/15 20:13:50;;;;;;;11.73;4.57;;;1.80;95.50;;;-0.24;81.56;98686.84;10209556;28;96494;-84
2024/01/15 20:18:54;;;;;;;7.40;3.63;;;1.70;95.50;;;-0.23;82.03;98696.34;10225335;28;96458;-84
2024/01/15 20:23:57;;;;;;;8.93;3.53;;;1.70;95.10;;;-0.19;83.09;98710.75;10224413;28;96572;-84
2024/01/15 20:29:08;;;;;;;9.43;2.97;;;1.70;95.30;;;-0.21;83.45;98725.72;10224817;28;96547;-85
2024/01/15 20:34:12;;;;;;;5.83;2.77;;;1.80;95.40;;;-0.08;83.40;98760.25;10207177;28;97996;-83
2024/01/15 20:39:16;;;;;;;5.47;2.73;;;1.80;96.00;;;0.01;82.90;98733.31;10220728;28;96905;-84
2024/01/15 20:44:21;;;;;;;6.37;2.63;;;1.90;95.90;;;0.18;82.19;98737.88;10234238;28;96704;-84
2024/01/15 20:49:25;;;;;;;4.93;2.83;;;2.10;95.90;;;0.28;81.51;98755.31;10213746;28;96507;-85
2024/01/15 20:54:29;;;;;;;5.47;2.27;;;2.10;95.80;;;0.24;81.52;98753.00;10215570;28;96481;-84
2024/01/15 20:59:33;;;;;;;5.53;2.60;;;2.20;95.80;;;0.31;80.71;98752.44;10229679;28;96806;-85
2024/01/15 21:04:36;;;;;;;5.37;2.77;;;2.20;95.60;;;0.35;80.66;98730.28;10220718;28;97094;-84
2024/01/15 21:09:40;;;;;;;5.07;2.50;;;2.30;96.00;;;0.30;80.34;98727.25;10250763;28;96567;-85